createdAt,value
2018-05-12T00:01:22.550Z,63.17
2018-05-12T00:05:25.040Z,63.25
2018-05-12T00:09:27.530Z,63.31
2018-05-12T00:13:30.018Z,63.34
2018-05-12T00:17:32.503Z,63.40
2018-05-12T00:21:35.004Z,63.36
2018-05-12T00:25:37.503Z,63.57
2018-05-12T00:29:39.989Z,63.90
2018-05-12T00:33:42.475Z,64.04
2018-05-12T00:37:44.957Z,64.01
2018-05-12T00:46:28.687Z,64.06
2018-05-12T00:50:31.437Z,64.18
2018-05-12T00:54:34.236Z,64.28
2018-05-12T00:58:37.047Z,64.33
2018-05-12T01:02:39.771Z,64.45
2018-05-12T01:06:42.447Z,64.67
2018-05-12T01:38:41.488Z,65.36
2018-05-12T01:42:44.093Z,65.47
2018-05-12T01:46:46.750Z,65.49
2018-05-12T01:50:51.467Z,65.58
2018-05-12T01:54:54.746Z,65.54
2018-05-12T01:58:58.116Z,65.46
2018-05-12T02:03:00.685Z,65.40
2018-05-12T02:07:03.323Z,65.40
2018-05-12T02:11:06.028Z,65.41
2018-05-12T02:15:08.804Z,65.55
2018-05-12T02:19:11.440Z,65.75
2018-05-12T02:23:14.146Z,65.93
2018-05-12T02:27:16.774Z,66.01
2018-05-12T02:31:19.447Z,66.00
2018-05-12T02:35:22.085Z,66.13
2018-05-12T02:39:24.741Z,66.20
2018-05-12T02:43:27.394Z,66.17
2018-05-12T02:47:30.059Z,66.08
2018-05-12T02:51:32.769Z,66.02
2018-05-12T02:55:35.470Z,65.99
2018-05-12T03:18:16.092Z,66.19
2018-05-12T03:22:18.700Z,66.25
2018-05-12T03:26:21.563Z,66.30
2018-05-12T04:39:53.188Z,67.09
2018-05-12T04:43:55.884Z,67.22
2018-05-12T04:47:58.386Z,67.42
2018-05-12T04:52:01.183Z,67.49
2018-05-12T04:56:03.892Z,67.64
2018-05-12T05:00:06.670Z,67.66
2018-05-12T05:04:09.430Z,67.65
2018-05-12T05:12:53.424Z,67.72
2018-05-12T05:16:56.186Z,67.88
2018-05-12T05:20:58.894Z,67.65
2018-05-12T05:25:01.615Z,67.28
2018-05-12T05:29:04.522Z,66.82
2018-05-12T05:33:07.253Z,66.08
2018-05-12T05:37:10.028Z,65.70
2018-05-12T05:41:12.698Z,65.47
2018-05-12T05:45:15.375Z,64.94
2018-05-12T05:49:18.254Z,64.17
2018-05-12T05:53:21.063Z,63.58
2018-05-12T05:57:23.764Z,62.96
2018-05-12T06:01:26.401Z,62.80
2018-05-12T06:05:29.099Z,62.42
2018-05-12T06:14:09.983Z,61.81
2018-05-12T06:18:12.596Z,61.37
2018-05-12T06:22:15.079Z,60.90
2018-05-12T06:26:17.633Z,60.35
2018-05-12T06:30:21.344Z,60.42
2018-05-12T06:34:23.971Z,59.49
2018-05-12T06:38:26.774Z,58.82
2018-05-12T06:42:29.546Z,58.83
2018-05-12T06:46:32.185Z,58.68
2018-05-12T06:50:39.897Z,58.14
2018-05-12T06:54:42.555Z,57.52
2018-05-12T06:58:45.216Z,58.22
2018-05-12T07:02:47.932Z,57.65
2018-05-12T07:06:50.427Z,57.14
2018-05-12T07:10:58.371Z,55.99
2018-05-12T07:15:00.968Z,55.47
2018-05-12T07:19:03.597Z,55.95
2018-05-12T07:23:06.188Z,55.10
2018-05-12T07:27:08.784Z,55.09
2018-05-12T07:31:11.431Z,54.81
2018-05-12T07:35:14.251Z,54.19
2018-05-12T07:39:17.605Z,54.35
2018-05-12T07:43:20.200Z,54.02
2018-05-12T07:47:22.899Z,53.50
2018-05-12T07:51:25.671Z,52.50
2018-05-12T07:55:28.408Z,52.63
2018-05-12T07:59:30.926Z,52.65
2018-05-12T08:03:33.571Z,52.87
2018-05-12T08:07:36.144Z,52.84
2018-05-12T08:11:38.731Z,51.86
2018-05-12T08:15:41.341Z,50.96
2018-05-12T08:19:44.774Z,51.01
2018-05-12T08:23:47.386Z,50.57
2018-05-12T08:27:49.903Z,50.37
2018-05-12T08:31:52.455Z,49.96
2018-05-12T08:35:55.016Z,49.86
2018-05-12T08:39:57.604Z,49.99
2018-05-12T08:44:00.177Z,50.58
2018-05-12T08:48:02.702Z,49.57
2018-05-12T08:52:05.200Z,50.80
2018-05-12T08:56:07.759Z,49.78
2018-05-12T09:00:11.297Z,48.99
2018-05-12T09:04:13.839Z,48.62
2018-05-12T09:08:16.392Z,49.36
2018-05-12T09:12:18.927Z,49.04
2018-05-12T09:16:21.466Z,46.95
2018-05-12T09:20:23.996Z,47.43
2018-05-12T09:24:27.442Z,46.80
2018-05-12T09:28:30.075Z,47.18
2018-05-12T09:32:32.564Z,47.48
2018-05-12T09:36:35.108Z,45.18
2018-05-12T09:40:37.645Z,44.72
2018-05-12T09:44:40.176Z,44.75
2018-05-12T09:48:49.658Z,44.56
2018-05-12T09:52:52.182Z,44.97
2018-05-12T09:56:54.728Z,44.46
2018-05-12T10:00:57.267Z,45.14
2018-05-12T10:09:08.598Z,43.62
2018-05-12T10:13:11.107Z,43.87
2018-05-12T10:17:13.632Z,43.07
2018-05-12T10:21:16.140Z,42.60
2018-05-12T10:25:18.655Z,42.54
2018-05-12T10:29:21.180Z,42.38
2018-05-12T10:33:23.656Z,41.94
2018-05-12T10:37:26.171Z,41.29
2018-05-12T10:41:28.645Z,41.80
2018-05-12T10:45:31.149Z,43.17
2018-05-12T10:49:33.649Z,41.53
2018-05-12T10:53:36.153Z,41.09
2018-05-12T10:57:38.660Z,40.73
2018-05-12T11:01:41.128Z,41.89
2018-05-12T11:05:43.656Z,41.84
2018-05-12T11:09:49.152Z,41.55
2018-05-12T11:13:51.701Z,42.87
2018-05-12T11:17:54.203Z,42.39
2018-05-12T11:21:56.798Z,41.96
2018-05-12T11:25:59.194Z,41.36
2018-05-12T11:30:01.690Z,42.56
2018-05-12T11:34:04.176Z,41.64
2018-05-12T11:38:06.660Z,41.82
2018-05-12T11:42:09.165Z,40.92
2018-05-12T11:46:11.621Z,41.39
2018-05-12T11:50:14.092Z,42.05
2018-05-12T11:54:16.576Z,40.79
2018-05-12T11:58:19.158Z,41.08
2018-05-12T12:02:21.557Z,41.08
2018-05-12T12:06:24.051Z,41.22
2018-05-12T12:10:26.518Z,40.21
2018-05-12T12:14:29.008Z,40.54
2018-05-12T12:18:31.485Z,39.83
2018-05-12T12:22:33.993Z,41.08
2018-05-12T12:26:36.511Z,41.22
2018-05-12T12:30:39.019Z,41.43
2018-05-12T12:34:41.524Z,40.57
2018-05-12T12:38:44.006Z,40.62
2018-05-12T12:42:46.476Z,39.64
2018-05-12T12:46:48.960Z,38.53
2018-05-12T12:50:51.448Z,39.57
2018-05-12T12:54:53.939Z,40.51
2018-05-12T12:58:56.440Z,39.04
2018-05-12T13:02:58.915Z,39.33
2018-05-12T13:07:01.433Z,40.11
2018-05-12T13:11:03.918Z,38.88
2018-05-12T13:15:06.403Z,39.95
2018-05-12T13:19:08.900Z,38.60
2018-05-12T13:23:11.388Z,38.05
2018-05-12T13:27:13.886Z,38.32
2018-05-12T13:31:16.388Z,37.49
2018-05-12T13:35:18.840Z,37.59
2018-05-12T13:39:21.321Z,36.65
2018-05-12T13:43:23.809Z,37.73
2018-05-12T13:47:26.266Z,37.49
2018-05-12T13:51:28.743Z,37.62
2018-05-12T13:55:31.229Z,37.99
2018-05-12T13:59:33.708Z,37.98
2018-05-12T14:03:36.200Z,37.47
2018-05-12T14:07:38.676Z,37.94
2018-05-12T14:11:41.159Z,37.56
2018-05-12T14:15:43.636Z,36.94
2018-05-12T14:19:46.117Z,37.18
2018-05-12T14:23:48.614Z,37.57
2018-05-12T14:27:51.072Z,39.35
2018-05-12T14:31:53.555Z,38.54
2018-05-12T14:35:56.037Z,39.09
2018-05-12T14:39:58.500Z,39.69
2018-05-12T14:44:00.982Z,39.55
2018-05-12T14:48:03.472Z,39.09
2018-05-12T14:52:05.957Z,38.13
2018-05-12T14:56:08.413Z,38.91
2018-05-12T15:00:10.904Z,38.75
2018-05-12T15:04:13.380Z,39.52
2018-05-12T15:08:15.904Z,39.74
2018-05-12T15:12:18.367Z,40.28
2018-05-12T15:16:20.867Z,40.82
2018-05-12T15:20:47.405Z,41.45
2018-05-12T15:24:49.919Z,41.92
2018-05-12T15:28:52.447Z,43.62
2018-05-12T15:32:54.937Z,46.06
2018-05-12T15:36:57.442Z,49.28
2018-05-12T15:40:59.905Z,51.11
2018-05-12T15:45:02.516Z,51.50
2018-05-12T15:49:05.004Z,50.33
2018-05-12T15:53:07.476Z,48.23
2018-05-12T15:57:09.960Z,50.06
2018-05-12T16:01:12.451Z,52.03
2018-05-12T16:05:14.914Z,54.44
2018-05-12T16:09:17.407Z,56.57
2018-05-12T16:13:19.892Z,55.65
2018-05-12T16:17:22.383Z,55.45
2018-05-12T16:21:24.841Z,55.65
2018-05-12T16:25:27.326Z,55.35
2018-05-12T16:29:29.789Z,57.16
2018-05-12T16:33:32.273Z,58.20
2018-05-12T16:37:34.768Z,58.63
2018-05-12T16:41:37.222Z,59.66
2018-05-12T16:45:39.711Z,58.58
2018-05-12T16:49:42.195Z,58.50
2018-05-12T16:53:44.706Z,59.56
2018-05-12T16:57:47.158Z,59.34
2018-05-12T17:01:49.664Z,59.53
2018-05-12T17:05:52.115Z,59.41
2018-05-12T17:09:54.602Z,59.81
2018-05-12T17:13:57.095Z,59.98
2018-05-12T17:17:59.567Z,60.12
2018-05-12T17:22:02.050Z,60.29
2018-05-12T17:26:04.541Z,60.27
2018-05-12T17:30:07.051Z,61.22
2018-05-12T17:34:09.515Z,61.42
2018-05-12T17:38:12.002Z,61.95
2018-05-12T17:42:14.489Z,62.23
2018-05-12T17:46:16.986Z,62.03
2018-05-12T17:50:19.442Z,61.99
2018-05-12T17:54:21.928Z,61.89
2018-05-12T17:58:24.410Z,61.43
2018-05-12T18:02:26.882Z,61.01
2018-05-12T18:06:29.336Z,59.26
2018-05-12T18:10:31.830Z,59.02
2018-05-12T18:14:34.331Z,60.17
2018-05-12T18:18:36.780Z,59.38
2018-05-12T18:22:39.259Z,60.20
2018-05-12T18:26:41.748Z,59.90
2018-05-12T18:30:44.216Z,60.29
2018-05-12T18:34:46.709Z,61.10
2018-05-12T18:38:49.189Z,61.30
2018-05-12T18:42:51.651Z,61.60
2018-05-12T18:46:54.149Z,61.78
2018-05-12T18:50:56.608Z,62.27
2018-05-12T18:54:59.087Z,62.44
2018-05-12T18:59:01.612Z,62.43
2018-05-12T19:03:04.090Z,62.71
2018-05-12T19:07:06.583Z,63.08
2018-05-12T19:11:09.084Z,63.18
2018-05-12T19:15:11.561Z,63.54
2018-05-12T19:19:14.063Z,63.94
2018-05-12T19:23:16.521Z,64.32
2018-05-12T19:27:19.286Z,64.93
2018-05-12T19:31:21.800Z,65.21
2018-05-12T19:35:24.264Z,64.83
2018-05-12T19:39:26.750Z,64.76
2018-05-12T19:43:29.240Z,64.65
2018-05-12T19:47:31.694Z,64.36
2018-05-12T19:51:34.208Z,64.59
2018-05-12T19:55:36.672Z,64.32
2018-05-12T19:59:39.183Z,64.72
2018-05-12T20:03:41.717Z,64.70
2018-05-12T20:07:45.482Z,64.65
2018-05-12T20:11:47.971Z,64.88
2018-05-12T20:15:50.452Z,65.08
2018-05-12T20:19:52.913Z,64.90
2018-05-12T20:23:55.404Z,64.49
2018-05-12T20:27:57.892Z,64.65
2018-05-12T20:32:00.404Z,64.92
2018-05-12T20:36:02.945Z,64.70
2018-05-12T20:40:05.440Z,64.22
2018-05-12T20:44:07.923Z,64.19
2018-05-12T20:48:10.413Z,63.66
2018-05-12T20:52:12.930Z,63.50
2018-05-12T20:56:15.435Z,63.53
2018-05-12T21:00:17.894Z,63.35
2018-05-12T21:04:20.374Z,63.36
2018-05-12T21:08:22.862Z,63.47
2018-05-12T21:12:25.347Z,63.45
2018-05-12T21:16:27.832Z,63.29
2018-05-12T21:20:30.422Z,63.45
2018-05-12T21:24:32.879Z,63.63
2018-05-12T21:28:35.364Z,63.85
2018-05-12T21:32:37.846Z,64.27
2018-05-12T21:36:40.300Z,64.35
2018-05-12T21:40:42.790Z,64.57
2018-05-12T21:44:45.286Z,64.91
2018-05-12T21:48:47.743Z,65.02
2018-05-12T21:52:50.228Z,65.30
2018-05-12T21:56:52.698Z,65.14
2018-05-12T22:00:56.246Z,64.71
2018-05-12T22:04:58.755Z,64.81
2018-05-12T22:09:01.219Z,65.00
2018-05-12T22:13:03.705Z,65.20
2018-05-12T22:17:06.209Z,65.33
2018-05-12T22:21:08.679Z,65.43
2018-05-12T22:25:11.177Z,65.50
2018-05-12T22:29:13.646Z,65.60
2018-05-12T22:33:16.150Z,65.50
2018-05-12T22:37:18.637Z,65.51
2018-05-12T22:41:21.128Z,65.74
2018-05-12T22:45:23.591Z,65.70
2018-05-12T22:49:27.043Z,65.62
2018-05-12T22:53:29.507Z,65.65
2018-05-12T22:57:32.018Z,65.53
2018-05-12T23:01:34.488Z,65.47
2018-05-12T23:05:36.991Z,65.21
2018-05-12T23:09:39.474Z,65.38
2018-05-12T23:13:41.962Z,66.04
2018-05-12T23:17:44.651Z,66.29
2018-05-12T23:21:47.144Z,66.01
2018-05-12T23:25:49.612Z,65.98
2018-05-12T23:29:52.103Z,65.77
2018-05-12T23:33:54.607Z,65.56
2018-05-12T23:37:57.098Z,65.46
2018-05-12T23:41:59.595Z,65.36
2018-05-12T23:46:02.098Z,65.22
2018-05-12T23:50:04.580Z,65.18
2018-05-12T23:54:07.083Z,65.42
2018-05-12T23:58:09.608Z,65.52
